Time;durP1;ratioP1;P1;durP2;ratioP2;P2;SDS_P1;SDS_P2;PMS_P1;PMS_P2;Temp;Humidity;BMP_temperature;BMP_pressure;BME280_temperature;BME280_humidity;BME280_pressure;Samples;Min_cycle;Max_cycle;Signal;HPM_P1;HPM_P2
2023/05/14 00:00:47;;;;;;;11.30;8.70;;;;;;;13.61;71.04;101842.44;6109941;23;20044;-80
2023/05/14 00:03:12;;;;;;;11.35;9.07;;;;;;;13.58;71.38;101847.75;6108805;23;20012;-80
2023/05/14 00:05:38;;;;;;;11.50;8.98;;;;;;;13.50;72.12;101848.69;6109914;23;20025;-80
2023/05/14 00:08:03;;;;;;;10.25;9.15;;;;;;;13.46;71.94;101849.59;6134518;23;20005;-80
2023/05/14 00:10:30;;;;;;;10.48;8.88;;;;;;;13.46;71.49;101843.44;6133186;23;20037;-80
2023/05/14 00:12:55;;;;;;;11.70;8.68;;;;;;;13.43;71.41;101839.09;6110290;23;20005;-79
2023/05/14 00:15:21;;;;;;;14.52;9.52;;;;;;;13.35;72.22;101838.25;6109854;23;20324;-79
2023/05/14 00:17:46;;;;;;;13.23;10.27;;;;;;;13.24;73.17;101835.66;6134430;23;20012;-80
2023/05/14 00:20:12;;;;;;;13.70;9.85;;;;;;;13.15;73.55;101830.47;6110224;23;20009;-81
2023/05/14 00:22:38;;;;;;;14.48;9.52;;;;;;;13.08;73.60;101831.41;6109960;23;20407;-80
2023/05/14 00:25:06;;;;;;;15.43;10.02;;;;;;;13.02;73.46;101829.66;6133674;23;20013;-80
2023/05/14 00:27:33;;;;;;;11.18;9.93;;;;;;;12.99;72.96;101829.69;6185560;23;20000;-81
2023/05/14 00:29:59;;;;;;;13.25;10.20;;;;;;;12.92;74.27;101827.97;6134772;23;20021;-79
2023/05/14 00:32:24;;;;;;;13.50;10.15;;;;;;;12.83;74.76;101827.16;6134499;23;20128;-80
2023/05/14 00:34:49;;;;;;;14.10;10.68;;;;;;;12.80;75.30;101821.91;6109823;23;20096;-79
2023/05/14 00:37:15;;;;;;;17.00;11.38;;;;;;;12.72;75.39;101821.06;6132847;23;20009;-79
2023/05/14 00:39:40;;;;;;;13.93;10.73;;;;;;;12.69;76.10;101828.97;6109021;23;20008;-80
2023/05/14 00:42:06;;;;;;;13.05;10.55;;;;;;;12.65;76.21;101821.97;6132174;23;20335;-79
2023/05/14 00:44:31;;;;;;;11.25;10.05;;;;;;;12.61;76.16;101814.97;6133639;23;20017;-80
2023/05/14 00:46:58;;;;;;;12.30;11.00;;;;;;;12.51;76.66;101815.91;6133515;23;20089;-80
2023/05/14 00:49:24;;;;;;;14.93;10.60;;;;;;;12.50;76.83;101815.03;6133154;23;20075;-74
2023/05/14 00:51:50;;;;;;;13.35;10.95;;;;;;;12.45;77.16;101815.03;6131540;23;20012;-74
2023/05/14 00:54:19;;;;;;;13.20;10.93;;;;;;;12.41;77.04;101820.31;6132362;23;20016;-78
2023/05/14 00:56:45;;;;;;;17.98;11.15;;;;;;;12.40;76.83;101806.31;6183951;23;20072;-74
2023/05/14 00:59:12;;;;;;;16.85;11.20;;;;;;;12.34;77.32;101808.97;6132760;23;20012;-74
2023/05/14 01:01:38;;;;;;;12.73;11.45;;;;;;;12.32;77.28;101800.19;6157840;23;20028;-75
2023/05/14 01:04:05;;;;;;;14.65;12.15;;;;;;;12.29;77.79;101793.19;6158031;23;20088;-79
2023/05/14 01:06:50;;;;;;;13.75;12.05;;;;;;;12.34;77.08;101806.34;6109113;23;20213;-79
2023/05/14 01:09:41;;;;;;;12.60;11.30;;;;;;;12.28;77.43;101801.09;6156901;23;20012;-79
2023/05/14 01:12:33;;;;;;;13.57;11.73;;;;;;;12.25;77.83;101807.22;6158150;23;20347;-80
2023/05/14 01:15:08;;;;;;;16.15;12.10;;;;;;;12.20;78.39;101802.88;6157759;23;20015;-75
2023/05/14 01:17:40;;;;;;;16.55;12.32;;;;;;;12.15;78.66;101804.66;6159043;23;20339;-80
2023/05/14 01:20:07;;;;;;;14.98;12.20;;;;;;;12.09;78.77;101802.91;6158525;23;20375;-80
2023/05/14 01:22:32;;;;;;;14.38;12.90;;;;;;;12.07;79.24;101808.16;6109332;23;20470;-75
2023/05/14 01:24:57;;;;;;;13.20;11.90;;;;;;;12.01;78.81;101802.94;6108901;23;20009;-75
2023/05/14 01:27:37;;;;;;;17.63;13.25;;;;;;;12.02;78.27;101802.03;6109563;23;20009;-75
2023/05/14 01:30:32;;;;;;;13.67;12.23;;;;;;;11.90;79.78;101800.28;6158005;23;20009;-75
2023/05/14 01:32:59;;;;;;;14.15;12.60;;;;;;;11.83;79.99;101802.94;6103918;23;20005;-75
2023/05/14 01:35:28;;;;;;;16.98;13.70;;;;;;;11.76;80.27;101800.28;6157685;23;20091;-75
2023/05/14 01:38:03;;;;;;;17.27;13.25;;;;;;;11.81;79.31;101792.44;6157194;23;20093;-75
2023/05/14 01:40:30;;;;;;;15.35;13.07;;;;;;;11.74;79.30;101794.19;6157165;23;20005;-80
2023/05/14 01:42:56;;;;;;;15.75;13.95;;;;;;;11.71;80.49;101793.28;6108159;23;20005;-80
2023/05/14 01:45:22;;;;;;;16.17;13.90;;;;;;;11.65;80.09;101788.06;6157738;23;20384;-80
2023/05/14 01:47:48;;;;;;;15.95;14.38;;;;;;;11.61;80.41;101789.84;6108083;23;20024;-80
2023/05/14 01:50:15;;;;;;;15.60;13.77;;;;;;;11.55;80.38;101792.44;6109119;23;20012;-80
2023/05/14 01:52:41;;;;;;;15.07;12.85;;;;;;;11.50;80.51;101789.81;6157018;23;20116;-80
2023/05/14 01:55:07;;;;;;;16.75;13.48;;;;;;;11.50;81.09;101797.69;6156985;23;20048;-75
2023/05/14 01:57:32;;;;;;;17.95;14.98;;;;;;;11.42;81.52;101800.34;6107072;23;20546;-75
2023/05/14 01:59:59;;;;;;;16.85;14.63;;;;;;;11.37;81.89;101799.44;6131754;23;20031;-75
2023/05/14 02:02:24;;;;;;;16.42;14.60;;;;;;;11.31;81.84;101793.34;6131756;23;20016;-75
2023/05/14 02:04:50;;;;;;;16.30;14.60;;;;;;;11.30;81.95;101797.69;6157558;23;20367;-80
2023/05/14 02:07:16;;;;;;;15.70;13.55;;;;;;;11.29;81.50;101789.81;6157039;23;20040;-80
2023/05/14 02:09:41;;;;;;;18.85;15.10;;;;;;;11.22;81.41;101787.22;6107284;23;20009;-80
2023/05/14 02:12:08;;;;;;;21.90;15.88;;;;;;;11.21;82.01;101787.22;6107311;23;20036;-80
2023/05/14 02:14:33;;;;;;;17.42;14.63;;;;;;;11.16;82.32;101786.31;6108408;23;20019;-80
2023/05/14 02:16:59;;;;;;;16.35;14.65;;;;;;;11.15;83.02;101788.06;6132879;23;20013;-80
2023/05/14 02:19:25;;;;;;;18.60;15.55;;;;;;;11.12;82.67;101781.94;6108560;23;20083;-80
2023/05/14 02:21:50;;;;;;;16.35;14.65;;;;;;;11.15;82.00;101771.44;6132885;23;20024;-80
2023/05/14 02:24:16;;;;;;;16.58;14.75;;;;;;;11.13;82.58;101775.81;6132146;23;20036;-80
2023/05/14 02:26:41;;;;;;;20.67;15.32;;;;;;;11.13;82.61;101770.59;6108641;23;20092;-80
2023/05/14 02:29:07;;;;;;;18.00;16.08;;;;;;;11.07;82.94;101777.56;6108027;23;20012;-80
2023/05/14 02:31:32;;;;;;;19.98;16.25;;;;;;;11.04;84.28;101790.66;6108642;23;20317;-80
2023/05/14 02:34:00;;;;;;;19.65;16.77;;;;;;;10.99;84.18;101781.94;6110284;23;20013;-80
2023/05/14 02:36:25;;;;;;;18.83;17.00;;;;;;;10.97;84.13;101783.66;6134741;23;20009;-80
2023/05/14 02:38:51;;;;;;;19.42;17.33;;;;;;;10.94;84.42;101775.81;6159791;23;20071;-80
2023/05/14 02:41:16;;;;;;;20.92;17.13;;;;;;;10.90;85.26;101777.56;6109905;23;20009;-80
2023/05/14 02:43:42;;;;;;;19.02;16.67;;;;;;;10.88;85.00;101767.94;6110791;23;20024;-80
2023/05/14 02:46:07;;;;;;;18.83;16.85;;;;;;;10.89;84.48;101774.94;6158845;23;20335;-80
2023/05/14 02:48:32;;;;;;;23.35;16.23;;;;;;;10.83;84.55;101774.91;6110700;23;20312;-80
2023/05/14 02:50:59;;;;;;;19.58;17.55;;;;;;;10.79;84.52;101775.75;6133895;23;20016;-80
2023/05/14 02:53:24;;;;;;;19.00;17.00;;;;;;;10.79;84.71;101778.38;6134949;23;20019;-80
2023/05/14 02:55:50;;;;;;;20.17;17.52;;;;;;;10.74;84.88;101776.63;6133867;23;20013;-81
2023/05/14 02:58:15;;;;;;;19.27;17.02;;;;;;;10.71;84.92;101779.25;6135193;23;20062;-76
2023/05/14 03:00:41;;;;;;;19.60;17.50;;;;;;;10.60;85.69;101775.72;6110496;23;20016;-75
2023/05/14 03:03:06;;;;;;;19.13;16.95;;;;;;;10.60;85.86;101773.09;6159103;23;20009;-76
2023/05/14 03:05:32;;;;;;;22.40;17.88;;;;;;;10.60;86.06;101769.59;6109957;23;20013;-75
2023/05/14 03:07:57;;;;;;;19.77;17.73;;;;;;;10.58;86.04;101766.97;6110275;23;20020;-76
2023/05/14 03:10:23;;;;;;;23.95;18.10;;;;;;;10.56;86.12;101773.97;6133967;23;20091;-75
2023/05/14 03:12:48;;;;;;;19.80;17.35;;;;;;;10.53;86.16;101768.69;6110119;23;20020;-76
2023/05/14 03:15:14;;;;;;;19.90;17.60;;;;;;;10.46;86.68;101764.31;6110295;23;20016;-76
2023/05/14 03:17:39;;;;;;;21.60;19.17;;;;;;;10.43;87.00;101765.19;6159142;23;20043;-75
2023/05/14 03:20:05;;;;;;;23.77;18.88;;;;;;;10.40;87.70;101758.19;6108035;23;20016;-75
2023/05/14 03:22:31;;;;;;;20.20;18.10;;;;;;;10.36;87.01;101759.03;6110157;23;20020;-75
2023/05/14 03:24:56;;;;;;;20.58;18.42;;;;;;;10.30;87.58;101759.00;6133300;23;20009;-75
2023/05/14 03:27:22;;;;;;;20.88;18.67;;;;;;;10.28;87.40;101758.09;6109934;23;20031;-75
2023/05/14 03:29:47;;;;;;;22.65;18.65;;;;;;;10.28;87.47;101754.63;6110126;23;20377;-75
2023/05/14 03:32:13;;;;;;;22.15;19.17;;;;;;;10.22;87.15;101745.84;6134452;23;20013;-75
2023/05/14 03:34:39;;;;;;;22.27;19.70;;;;;;;10.18;88.09;101757.19;6108651;23;20016;-75
2023/05/14 03:37:05;;;;;;;22.15;19.73;;;;;;;10.14;87.84;101752.81;6109767;23;20313;-76
2023/05/14 03:39:30;;;;;;;23.25;20.02;;;;;;;10.13;88.44;101753.69;6108396;23;20013;-76
2023/05/14 03:41:57;;;;;;;23.55;19.60;;;;;;;10.10;88.69;101752.78;6110103;23;20016;-76
2023/05/14 03:44:23;;;;;;;23.50;19.73;;;;;;;10.09;89.11;101753.66;6133588;23;20130;-75
2023/05/14 03:46:49;;;;;;;23.50;19.98;;;;;;;10.09;89.34;101753.66;6159305;23;20446;-75
2023/05/14 03:49:14;;;;;;;25.13;20.45;;;;;;;10.08;89.12;101751.91;6109447;23;20009;-75
2023/05/14 03:51:40;;;;;;;22.92;20.27;;;;;;;10.05;89.47;101751.00;6133245;23;20075;-75
2023/05/14 03:54:06;;;;;;;23.25;20.75;;;;;;;10.03;89.69;101754.50;6133359;23;20020;-75
2023/05/14 03:56:31;;;;;;;23.55;20.90;;;;;;;10.04;89.78;101753.63;6158704;23;20079;-80
2023/05/14 03:58:56;;;;;;;25.60;21.48;;;;;;;10.03;90.01;101751.88;6109706;23;20016;-79
2023/05/14 04:01:22;;;;;;;24.00;21.40;;;;;;;10.02;90.34;101751.00;6109455;23;20008;-80
2023/05/14 04:03:47;;;;;;;25.05;20.85;;;;;;;10.04;90.23;101745.75;6109308;23;20013;-80
2023/05/14 04:06:13;;;;;;;24.95;22.17;;;;;;;10.06;90.19;101744.91;6158787;23;20063;-80
2023/05/14 04:08:38;;;;;;;26.77;21.92;;;;;;;10.09;89.99;101748.44;6109767;23;20019;-80
2023/05/14 04:11:04;;;;;;;27.25;21.90;;;;;;;10.07;90.28;101740.56;6158122;23;20105;-79
2023/05/14 04:13:29;;;;;;;26.85;22.45;;;;;;;10.09;90.79;101743.19;6109233;23;20009;-81
2023/05/14 04:15:56;;;;;;;28.92;21.73;;;;;;;10.09;90.90;101746.66;6109468;23;20009;-80
2023/05/14 04:18:21;;;;;;;29.70;22.95;;;;;;;10.11;90.51;101744.06;6134170;23;20372;-80
2023/05/14 04:20:46;;;;;;;25.85;23.08;;;;;;;10.16;91.32;101751.06;6158306;23;20043;-79
2023/05/14 04:23:12;;;;;;;26.67;22.23;;;;;;;10.21;90.48;101743.22;6158584;23;20091;-79
2023/05/14 04:25:37;;;;;;;26.00;22.50;;;;;;;10.22;90.87;101744.97;6133134;23;20424;-80
2023/05/14 04:28:03;;;;;;;24.83;21.63;;;;;;;10.29;90.80;101751.13;6133717;23;20088;-80
2023/05/14 04:30:28;;;;;;;25.95;23.25;;;;;;;10.32;91.34;101752.00;6108778;23;20016;-80
2023/05/14 04:32:54;;;;;;;27.33;23.92;;;;;;;10.37;91.45;101749.44;6133361;23;20392;-80
2023/05/14 04:35:20;;;;;;;27.58;24.63;;;;;;;10.39;91.65;101743.34;6133429;23;20461;-80
2023/05/14 04:37:45;;;;;;;26.20;22.65;;;;;;;10.49;91.32;101751.25;6133628;23;20120;-80
2023/05/14 04:40:11;;;;;;;26.98;24.13;;;;;;;10.49;91.64;101751.25;6131955;23;20019;-80
2023/05/14 04:42:37;;;;;;;26.70;23.77;;;;;;;10.52;90.99;101749.50;6158151;23;20005;-81
2023/05/14 04:45:05;;;;;;;28.98;24.10;;;;;;;10.62;90.93;101745.16;6133860;23;20462;-81
2023/05/14 04:47:30;;;;;;;29.38;24.80;;;;;;;10.68;90.89;101747.78;6109416;23;20031;-80
2023/05/14 04:49:56;;;;;;;32.42;26.27;;;;;;;10.74;91.31;101742.53;6132475;23;20428;-79
2023/05/14 04:52:22;;;;;;;28.13;23.75;;;;;;;10.88;90.91;101739.94;6108368;23;20020;-80
2023/05/14 04:54:48;;;;;;;30.20;25.27;;;;;;;10.94;90.85;101749.56;6155210;23;20095;-81
2023/05/14 04:57:14;;;;;;;30.60;25.23;;;;;;;11.08;90.77;101758.34;6155044;23;20001;-81
2023/05/14 04:59:39;;;;;;;29.00;25.25;;;;;;;11.11;90.76;101749.59;6157184;23;20376;-80
2023/05/14 05:02:05;;;;;;;28.17;23.48;;;;;;;11.22;90.26;101758.34;6129898;23;20031;-81
2023/05/14 05:04:30;;;;;;;28.48;24.25;;;;;;;11.30;89.66;101763.59;6107764;23;20016;-80
2023/05/14 05:06:55;;;;;;;27.23;23.40;;;;;;;11.46;88.86;101760.97;6131931;23;20005;-81
2023/05/14 05:09:21;;;;;;;30.23;23.27;;;;;;;11.50;88.78;101757.47;6130351;23;20009;-81
2023/05/14 05:11:46;;;;;;;26.02;22.80;;;;;;;11.65;88.73;101764.44;6132855;23;20013;-80
2023/05/14 05:14:12;;;;;;;27.13;22.15;;;;;;;11.76;87.80;101760.03;6108281;23;20008;-81
2023/05/14 05:16:37;;;;;;;26.38;23.58;;;;;;;11.88;86.94;101762.66;6109012;23;20079;-81
2023/05/14 05:19:03;;;;;;;26.92;23.08;;;;;;;11.96;88.03;101758.28;6132246;23;20017;-81
2023/05/14 05:21:28;;;;;;;25.98;22.70;;;;;;;12.09;87.63;101764.34;6106074;23;20012;-81
2023/05/14 05:23:54;;;;;;;26.25;22.10;;;;;;;12.30;85.71;101773.94;6131986;23;20092;-80
2023/05/14 05:26:21;;;;;;;26.50;21.38;;;;;;;12.55;85.39;101765.06;6107950;23;20033;-80
2023/05/14 05:28:46;;;;;;;26.38;21.63;;;;;;;12.73;84.21;101767.59;6109379;23;20009;-80
2023/05/14 05:31:12;;;;;;;23.90;20.70;;;;;;;12.88;84.06;101765.75;6132712;23;20035;-81
2023/05/14 05:33:37;;;;;;;24.00;20.30;;;;;;;13.09;83.66;101770.84;6132657;23;20040;-80
2023/05/14 05:36:03;;;;;;;24.67;19.88;;;;;;;13.29;82.26;101767.22;6157542;23;20431;-81
2023/05/14 05:38:28;;;;;;;21.45;17.70;;;;;;;13.46;80.49;101765.34;6133798;23;20340;-81
2023/05/14 05:40:54;;;;;;;21.80;19.52;;;;;;;13.72;80.58;101764.22;6108140;23;20037;-80
2023/05/14 05:43:19;;;;;;;21.67;17.50;;;;;;;13.84;78.64;101764.06;6108297;23;20317;-81
2023/05/14 05:45:45;;;;;;;20.83;17.60;;;;;;;13.94;78.81;101763.97;6107941;23;20056;-80
2023/05/14 05:48:10;;;;;;;28.55;17.98;;;;;;;14.28;78.33;101760.94;6132925;23;20092;-80
2023/05/14 05:50:36;;;;;;;20.55;16.98;;;;;;;14.34;76.15;101760.88;6133387;23;20016;-84
2023/05/14 05:53:02;;;;;;;21.90;17.00;;;;;;;14.26;74.96;101765.38;6133450;23;20009;-83
2023/05/14 05:55:28;;;;;;;22.40;17.42;;;;;;;14.24;75.28;101754.84;6129506;23;20031;-83
2023/05/14 05:57:53;;;;;;;20.48;16.42;;;;;;;14.17;75.26;101764.56;6108670;23;20442;-83
2023/05/14 06:00:20;;;;;;;22.48;16.65;;;;;;;14.08;75.04;101769.06;6132452;23;20144;-83
2023/05/14 06:02:48;;;;;;;19.42;16.85;;;;;;;14.12;75.51;101766.41;6108344;23;20364;-84
2023/05/14 06:05:15;;;;;;;21.83;17.58;;;;;;;14.10;77.07;101769.94;6130682;23;20037;-83
2023/05/14 06:07:40;;;;;;;20.63;17.08;;;;;;;14.35;76.81;101783.69;6104600;23;20013;-77
2023/05/14 06:10:06;;;;;;;21.77;17.52;;;;;;;14.42;75.66;101788.00;6131701;23;20015;-76
2023/05/14 06:12:32;;;;;;;22.55;18.00;;;;;;;14.41;75.26;101783.63;6109126;23;20009;-77
2023/05/14 06:14:57;;;;;;;23.02;18.23;;;;;;;14.64;77.08;101786.00;6156970;23;20009;-76
2023/05/14 06:17:23;;;;;;;21.52;17.38;;;;;;;15.02;76.20;101781.06;6132454;23;20013;-76
2023/05/14 06:19:50;;;;;;;20.85;18.65;;;;;;;15.29;75.81;101789.44;6130380;23;20143;-78
2023/05/14 06:22:16;;;;;;;21.65;18.00;;;;;;;15.29;74.00;101785.03;6107725;23;20012;-77
2023/05/14 06:24:42;;;;;;;22.88;17.67;;;;;;;15.60;74.89;101787.13;6131782;23;20335;-77
2023/05/14 06:27:07;;;;;;;22.45;17.25;;;;;;;15.73;72.44;101791.31;6157042;23;20422;-77
2023/05/14 06:29:33;;;;;;;20.40;16.33;;;;;;;16.10;72.64;101781.84;6108453;23;20021;-78
2023/05/14 06:32:02;;;;;;;22.98;17.98;;;;;;;15.93;72.09;101790.09;6108009;23;20097;-77
2023/05/14 06:34:29;;;;;;;23.30;16.83;;;;;;;15.62;70.50;101784.50;6157168;23;20071;-78
2023/05/14 06:36:54;;;;;;;19.30;16.27;;;;;;;15.51;69.59;101800.53;6133063;23;20021;-77
2023/05/14 06:39:19;;;;;;;18.52;16.48;;;;;;;15.13;70.11;101794.97;6107955;23;20104;-78
2023/05/14 06:41:45;;;;;;;21.42;16.60;;;;;;;14.91;71.19;101794.41;6108421;23;20005;-77
2023/05/14 06:44:10;;;;;;;18.60;16.55;;;;;;;15.06;71.64;101788.03;6108725;23;20415;-77
2023/05/14 06:46:36;;;;;;;22.80;16.45;;;;;;;14.82;71.46;101792.78;6133102;23;20008;-76
2023/05/14 06:49:02;;;;;;;21.65;17.33;;;;;;;14.77;72.41;101794.63;6132506;23;20017;-77
2023/05/14 06:51:27;;;;;;;22.30;18.23;;;;;;;14.78;73.40;101787.56;6131370;23;20020;-76
2023/05/14 06:53:54;;;;;;;21.27;17.58;;;;;;;14.93;75.27;101789.09;6108766;23;20004;-77
2023/05/14 06:56:20;;;;;;;23.80;18.65;;;;;;;15.29;74.06;101786.81;6157248;23;20005;-76
2023/05/14 06:58:46;;;;;;;21.35;19.15;;;;;;;15.41;74.85;101781.31;6157864;23;20001;-77
2023/05/14 07:01:11;;;;;;;25.50;19.85;;;;;;;15.82;74.43;101785.03;6107344;23;20066;-76
2023/05/14 07:03:37;;;;;;;23.80;20.10;;;;;;;16.17;75.60;101788.75;6157277;23;20340;-77
2023/05/14 07:06:02;;;;;;;23.23;20.83;;;;;;;16.33;73.35;101791.09;6107554;23;20087;-77
2023/05/14 07:08:28;;;;;;;24.50;21.08;;;;;;;16.74;74.30;101784.03;6133301;23;20009;-77
2023/05/14 07:10:53;;;;;;;21.15;18.73;;;;;;;16.90;70.63;101782.81;6131817;23;20009;-77
2023/05/14 07:13:19;;;;;;;24.60;20.20;;;;;;;17.23;70.94;101784.69;6133235;23;20009;-77
2023/05/14 07:15:44;;;;;;;23.15;19.95;;;;;;;17.48;69.89;101784.94;6108965;23;20016;-83
2023/05/14 07:18:09;;;;;;;21.98;18.38;;;;;;;17.63;67.18;101775.75;6110005;23;20056;-83
2023/05/14 07:20:35;;;;;;;19.90;17.75;;;;;;;17.61;66.97;101775.78;6159647;23;20016;-83
2023/05/14 07:23:00;;;;;;;22.17;17.77;;;;;;;17.61;65.98;101778.44;6132696;23;20163;-84
2023/05/14 07:25:26;;;;;;;21.42;19.23;;;;;;;17.63;67.40;101787.19;6110713;23;20067;-83
2023/05/14 07:27:51;;;;;;;24.20;18.20;;;;;;;17.73;66.56;101790.47;6159352;23;20012;-83
2023/05/14 07:30:17;;;;;;;19.55;17.30;;;;;;;17.72;67.09;101787.88;6134390;23;20383;-83
2023/05/14 07:32:42;;;;;;;22.00;18.33;;;;;;;17.78;67.42;101790.34;6110981;23;20438;-83
2023/05/14 07:35:08;;;;;;;21.48;18.13;;;;;;;18.07;67.03;101768.34;6134020;23;20347;-83
2023/05/14 07:37:34;;;;;;;19.88;17.63;;;;;;;17.86;64.11;101756.56;6134418;23;20013;-83
2023/05/14 07:40:18;;;;;;;20.20;17.58;;;;;;;17.84;66.04;101779.56;6158006;23;20435;-85
2023/05/14 07:42:43;;;;;;;20.77;17.98;;;;;;;17.65;64.44;101777.41;6156839;23;20000;-82
2023/05/14 07:45:09;;;;;;;19.98;17.88;;;;;;;17.58;64.42;101775.84;6107953;23;20031;-83
2023/05/14 07:47:35;;;;;;;20.35;18.08;;;;;;;17.30;65.02;101773.91;6131726;23;20017;-83
2023/05/14 07:50:02;;;;;;;20.50;17.70;;;;;;;17.15;66.23;101776.91;6107814;23;20013;-83
2023/05/14 07:52:27;;;;;;;22.38;17.60;;;;;;;17.22;67.67;101775.88;6131747;23;20391;-76
2023/05/14 07:54:53;;;;;;;23.50;17.95;;;;;;;17.19;65.27;101772.44;6157320;23;20083;-76
2023/05/14 07:57:19;;;;;;;21.33;17.83;;;;;;;17.13;66.50;101779.59;6106879;23;20449;-76
2023/05/14 07:59:46;;;;;;;22.25;18.33;;;;;;;17.30;69.68;101771.25;6133745;23;20016;-76
2023/05/14 08:04:44;;;;;;;19.45;17.45;;;;;;;17.64;67.03;101769.50;6166911;23;20358;-82
2023/05/14 08:14:55;;;;;;;19.77;16.63;;;;;;;18.08;63.60;101775.41;6157543;23;20030;-75
2023/05/14 08:17:20;;;;;;;18.13;15.90;;;;;;;18.34;64.41;101779.94;6102075;23;20024;-75
2023/05/14 08:19:46;;;;;;;19.02;17.02;;;;;;;18.18;65.72;101776.03;6127129;23;20001;-78
2023/05/14 08:22:12;;;;;;;17.80;15.90;;;;;;;18.46;64.56;101781.41;6102644;23;20013;-78
2023/05/14 08:24:41;;;;;;;20.20;16.70;;;;;;;18.27;65.99;101781.03;6127070;23;20013;-77
2023/05/14 08:27:10;;;;;;;21.98;16.48;;;;;;;18.14;65.45;101777.00;6103324;23;20009;-79
2023/05/14 08:29:37;;;;;;;18.25;16.52;;;;;;;18.23;65.82;101784.72;6079305;23;20029;-78
2023/05/14 08:32:02;;;;;;;19.75;16.27;;;;;;;18.40;63.60;101776.25;6078422;23;20013;-78
2023/05/14 08:34:28;;;;;;;20.40;16.42;;;;;;;18.35;64.06;101776.38;6079453;23;20017;-78
2023/05/14 08:36:54;;;;;;;18.45;16.02;;;;;;;18.41;63.45;101771.84;6078076;23;20017;-84
2023/05/14 08:39:25;;;;;;;19.85;16.63;;;;;;;18.55;63.94;101771.41;6078047;23;20017;-86
2023/05/14 08:41:51;;;;;;;19.27;15.23;;;;;;;18.60;63.75;101773.00;6104265;23;20553;-85
2023/05/14 08:44:37;;;;;;;17.20;15.38;;;;;;;18.66;65.00;101778.13;6128141;23;20061;-85
2023/05/14 08:47:03;;;;;;;18.77;16.88;;;;;;;18.74;65.99;101774.38;6107067;23;20018;-87
2023/05/14 08:49:41;;;;;;;17.10;15.15;;;;;;;18.79;63.88;101769.78;6124398;23;20010;-78
2023/05/14 08:52:08;;;;;;;20.10;15.88;;;;;;;18.72;64.30;101771.78;6126511;23;20009;-81
2023/05/14 08:57:10;;;;;;;17.70;14.95;;;;;;;18.80;62.67;101758.25;6152875;23;20060;-74
2023/05/14 08:59:36;;;;;;;17.88;14.75;;;;;;;18.76;64.44;101764.56;6102163;23;20443;-79
2023/05/14 09:02:03;;;;;;;16.55;13.80;;;;;;;18.65;62.29;101762.25;6100758;23;20014;-77
2023/05/14 09:07:01;;;;;;;17.00;13.05;;;;;;;18.68;58.28;101756.84;6160919;23;20025;-77
2023/05/14 09:09:27;;;;;;;15.88;13.52;;;;;;;18.76;59.15;101746.88;6125763;23;20084;-75
2023/05/14 09:11:53;;;;;;;15.35;13.75;;;;;;;18.79;58.46;101751.19;6102937;23;20372;-80
2023/05/14 09:14:20;;;;;;;16.33;14.45;;;;;;;18.87;60.94;101741.22;6103888;23;20010;-81
2023/05/14 09:16:50;;;;;;;19.83;15.05;;;;;;;18.78;59.71;101733.53;6129005;23;20546;-77
2023/05/14 09:19:19;;;;;;;14.48;12.82;;;;;;;18.87;59.21;101743.88;6154048;23;20033;-76
2023/05/14 09:21:46;;;;;;;17.70;14.43;;;;;;;18.91;59.38;101745.53;6152396;23;20095;-79
2023/05/14 09:24:25;;;;;;;17.10;14.35;;;;;;;19.15;61.83;101740.31;6101111;23;20017;-75
2023/05/14 09:26:56;;;;;;;15.85;14.25;;;;;;;19.18;60.91;101735.78;6128097;23;20040;-75
2023/05/14 09:29:25;;;;;;;17.95;14.88;;;;;;;19.35;63.17;101735.22;6102796;23;20598;-79
2023/05/14 09:31:51;;;;;;;16.53;14.07;;;;;;;19.24;62.01;101725.84;6078221;23;20013;-77
2023/05/14 09:34:27;;;;;;;14.75;13.25;;;;;;;19.34;61.49;101727.28;6102950;23;20013;-77
2023/05/14 09:36:57;;;;;;;18.45;13.90;;;;;;;19.45;60.29;101733.09;6103178;23;20009;-81
2023/05/14 09:39:24;;;;;;;17.00;13.90;;;;;;;19.49;60.02;101726.75;6103444;23;20009;-76
2023/05/14 09:41:53;;;;;;;16.83;13.15;;;;;;;19.62;58.67;101716.53;6080122;23;20013;-79
2023/05/14 09:44:22;;;;;;;14.40;12.90;;;;;;;19.48;59.04;101725.03;6127797;23;20374;-77
2023/05/14 09:49:32;;;;;;;14.15;12.40;;;;;;;19.38;58.59;101723.63;6153123;23;20475;-79
2023/05/14 09:51:59;;;;;;;16.13;13.48;;;;;;;19.29;58.29;101722.13;6101559;23;20450;-79
2023/05/14 09:54:26;;;;;;;16.70;13.63;;;;;;;19.35;58.49;101713.94;6126135;23;20010;-79
2023/05/14 09:56:51;;;;;;;16.25;13.43;;;;;;;19.39;58.40;101715.59;6128113;23;20020;-80
2023/05/14 09:59:20;;;;;;;15.93;13.18;;;;;;;19.44;58.86;101712.75;6079759;23;20601;-79
2023/05/14 10:01:46;;;;;;;15.25;12.50;;;;;;;19.38;57.95;101713.84;6104761;23;20017;-80
2023/05/14 10:04:11;;;;;;;16.27;13.63;;;;;;;19.58;62.14;101711.38;6156047;23;20411;-79
2023/05/14 10:06:38;;;;;;;19.70;12.57;;;;;;;19.53;60.48;101711.56;6079221;23;20068;-80
2023/05/14 10:09:11;;;;;;;15.38;13.25;;;;;;;19.69;59.50;101711.88;6127482;23;20675;-79
2023/05/14 10:11:41;;;;;;;16.92;12.57;;;;;;;19.70;61.16;101709.16;6127316;23;20009;-80
2023/05/14 10:14:11;;;;;;;14.90;12.32;;;;;;;19.80;60.94;101708.88;6126665;23;20092;-79
2023/05/14 10:16:42;;;;;;;14.23;12.15;;;;;;;19.81;59.02;101708.81;6125454;23;20343;-74
2023/05/14 10:19:09;;;;;;;15.65;13.10;;;;;;;19.79;58.42;101704.47;6127507;23;20040;-71
2023/05/14 10:21:37;;;;;;;16.83;13.02;;;;;;;19.81;58.34;101702.59;6101590;23;20021;-72
2023/05/14 10:24:04;;;;;;;15.40;12.15;;;;;;;19.96;57.88;101707.38;6126483;23;20137;-71
2023/05/14 10:26:31;;;;;;;17.23;13.27;;;;;;;19.93;59.63;101709.28;6126860;23;20044;-71
2023/05/14 10:28:58;;;;;;;13.73;12.05;;;;;;;20.05;60.22;101700.84;6127305;23;20009;-72
2023/05/14 10:31:47;;;;;;;17.45;12.82;;;;;;;20.20;60.74;101702.03;6125411;23;20008;-73
2023/05/14 10:34:39;;;;;;;15.20;13.55;;;;;;;20.24;59.48;101699.22;6127031;23;20340;-74
2023/05/14 10:37:13;;;;;;;15.57;13.65;;;;;;;20.07;58.61;101693.69;6124678;23;20093;-78
2023/05/14 10:40:13;;;;;;;16.08;14.38;;;;;;;20.06;60.12;101694.59;6125627;23;20487;-75
2023/05/14 10:42:39;;;;;;;16.10;14.10;;;;;;;20.00;56.19;101690.38;6125497;23;20013;-78
2023/05/14 10:45:11;;;;;;;14.98;13.32;;;;;;;20.06;59.17;101682.16;6078178;23;20088;-76
2023/05/14 10:47:39;;;;;;;15.10;12.90;;;;;;;20.28;58.80;101685.78;6126982;23;20056;-75
2023/05/14 10:50:07;;;;;;;14.57;11.57;;;;;;;20.39;56.34;101681.75;6154191;23;20048;-71
2023/05/14 10:52:33;;;;;;;15.38;11.82;;;;;;;20.46;56.36;101677.06;6130868;23;20013;-71
2023/05/14 10:55:02;;;;;;;14.55;12.13;;;;;;;20.44;59.40;101676.25;6132344;23;20005;-75
2023/05/14 10:57:29;;;;;;;14.95;12.25;;;;;;;20.33;57.20;101671.38;6157553;23;20499;-73
2023/05/14 10:59:59;;;;;;;13.10;11.68;;;;;;;20.34;57.32;101677.53;6158148;23;20001;-73
2023/05/14 11:02:25;;;;;;;14.93;11.63;;;;;;;20.55;55.61;101668.69;6156223;23;20013;-71
2023/05/14 11:05:05;;;;;;;13.55;10.30;;;;;;;20.58;58.01;101665.91;6158288;23;20012;-75
2023/05/14 11:07:32;;;;;;;15.57;11.50;;;;;;;20.64;58.00;101667.44;6134215;23;20016;-75
2023/05/14 11:10:04;;;;;;;13.23;11.07;;;;;;;20.64;56.44;101662.13;6158035;23;20032;-75
2023/05/14 11:12:30;;;;;;;13.88;11.38;;;;;;;20.75;54.53;101661.72;6159568;23;20339;-76
2023/05/14 11:15:01;;;;;;;12.07;10.82;;;;;;;20.76;56.18;101658.16;6159918;23;20009;-75
2023/05/14 11:17:28;;;;;;;14.65;10.80;;;;;;;20.77;55.97;101666.06;6159297;23;20515;-75
2023/05/14 11:19:54;;;;;;;11.27;9.63;;;;;;;20.81;56.74;101664.13;6158347;23;20001;-71
2023/05/14 11:22:20;;;;;;;10.35;8.63;;;;;;;20.91;53.24;101659.28;6134116;23;20024;-72
2023/05/14 11:24:45;;;;;;;11.07;9.40;;;;;;;21.11;53.63;101655.78;6134178;23;20008;-71
2023/05/14 11:27:11;;;;;;;13.15;9.43;;;;;;;21.14;54.61;101652.13;6135038;23;20013;-71